createdAt,value
2022-07-27T00:01:27.635Z,101591.91
2022-07-27T00:03:58.979Z,101581.50
2022-07-27T00:06:28.992Z,101589.13
2022-07-27T00:08:57.951Z,101584.59
2022-07-27T00:11:26.672Z,101580.91
2022-07-27T00:13:56.245Z,101579.47
2022-07-27T00:16:27.521Z,101577.94
2022-07-27T00:18:57.482Z,101580.13
2022-07-27T00:21:27.641Z,101593.22
2022-07-27T00:23:55.804Z,101583.66
2022-07-27T00:26:25.230Z,101585.31
2022-07-27T00:28:54.705Z,101583.28
2022-07-27T00:31:25.733Z,101588.78
2022-07-27T00:33:55.319Z,101588.16
2022-07-27T00:36:26.328Z,101585.25
2022-07-27T00:39:50.781Z,101579.84
2022-07-27T00:42:29.672Z,101582.69
2022-07-27T00:44:57.458Z,101575.31
2022-07-27T00:47:27.618Z,101576.13
2022-07-27T00:49:57.843Z,101569.69
2022-07-27T00:52:28.259Z,101571.50
2022-07-27T00:54:58.682Z,101571.63
2022-07-27T00:57:29.093Z,101561.22
2022-07-27T00:59:56.205Z,101575.19
2022-07-27T01:02:23.635Z,101579.00
2022-07-27T01:04:53.585Z,101568.53
2022-07-27T01:07:24.565Z,101572.59
2022-07-27T01:09:59.700Z,101575.16
2022-07-27T01:12:32.259Z,101589.47
2022-07-27T01:15:02.091Z,101583.41
2022-07-27T01:17:33.553Z,101582.50
2022-07-27T01:20:03.555Z,101575.06
2022-07-27T01:22:34.191Z,101570.75
2022-07-27T01:25:03.792Z,101572.41
2022-07-27T01:27:31.968Z,101571.31
2022-07-27T01:30:02.856Z,101572.91
2022-07-27T01:32:34.495Z,101567.69
2022-07-27T01:35:03.055Z,101559.66
2022-07-27T01:37:32.252Z,101562.44
2022-07-27T01:40:02.193Z,101562.44
2022-07-27T01:42:31.083Z,101563.97
2022-07-27T01:45:00.834Z,101564.75
2022-07-27T01:47:32.917Z,101563.75
2022-07-27T01:50:03.569Z,101567.94
2022-07-27T01:52:34.528Z,101557.22
2022-07-27T01:55:04.696Z,101562.31
2022-07-27T01:57:36.281Z,101564.50
2022-07-27T02:00:14.368Z,101549.47
2022-07-27T02:02:44.270Z,101559.13
2022-07-27T02:05:15.106Z,101564.00
2022-07-27T02:07:45.324Z,101560.56
2022-07-27T02:10:14.509Z,101553.75
2022-07-27T02:12:45.052Z,101557.97
2022-07-27T02:15:21.018Z,101553.06
2022-07-27T02:17:50.321Z,101560.31
2022-07-27T02:20:21.422Z,101563.66
2022-07-27T02:22:51.611Z,101562.94
2022-07-27T02:25:21.573Z,101565.06
2022-07-27T02:27:53.291Z,101557.47
2022-07-27T02:30:24.350Z,101559.38
2022-07-27T02:32:55.632Z,101563.31
2022-07-27T02:35:27.383Z,101563.06
2022-07-27T02:37:58.024Z,101555.31
2022-07-27T02:40:28.939Z,101558.06
2022-07-27T02:43:00.176Z,101557.81
2022-07-27T02:45:31.182Z,101559.59
2022-07-27T02:48:00.937Z,101559.47
2022-07-27T02:50:31.070Z,101559.00
2022-07-27T02:53:02.564Z,101561.50
2022-07-27T02:55:32.938Z,101563.78
2022-07-27T02:58:03.681Z,101564.72
2022-07-27T03:00:35.537Z,101573.19
2022-07-27T03:03:06.421Z,101566.41
2022-07-27T03:05:36.936Z,101566.63
2022-07-27T03:08:07.359Z,101557.34
2022-07-27T03:10:38.995Z,101553.75
2022-07-27T03:13:09.700Z,101556.38
2022-07-27T03:15:40.338Z,101556.72
2022-07-27T03:18:10.943Z,101551.13
2022-07-27T03:20:40.519Z,101560.66
2022-07-27T03:23:11.770Z,101557.41
2022-07-27T03:25:43.068Z,101558.25
2022-07-27T03:36:20.356Z,101555.22
2022-07-27T03:40:37.784Z,101555.41
2022-07-27T03:49:14.405Z,101573.75
2022-07-27T03:51:41.595Z,101572.91
2022-07-27T03:54:12.443Z,101570.81
2022-07-27T03:56:43.733Z,101570.88
2022-07-27T03:59:10.717Z,101573.84
2022-07-27T04:01:42.568Z,101568.38
2022-07-27T04:04:14.222Z,101574.66
2022-07-27T04:06:45.760Z,101569.41
2022-07-27T04:46:17.181Z,101572.81
2022-07-27T04:59:13.475Z,101589.16
2022-07-27T05:01:40.243Z,101588.22
2022-07-27T05:04:07.440Z,101585.94
2022-07-27T05:06:38.634Z,101585.00
2022-07-27T05:16:28.790Z,101594.19
2022-07-27T05:27:53.882Z,101603.81
2022-07-27T05:47:59.152Z,101632.31
2022-07-27T06:05:33.908Z,101650.13
2022-07-27T06:08:47.290Z,101646.53
2022-07-27T06:35:51.176Z,101650.22
2022-07-27T06:38:18.976Z,101652.41
2022-07-27T06:42:09.443Z,101641.06
2022-07-27T06:46:13.360Z,101642.91
2022-07-27T06:48:40.911Z,101648.34
2022-07-27T06:51:07.796Z,101645.41
2022-07-27T06:54:20.377Z,101647.97
2022-07-27T06:56:33.347Z,101646.69
2022-07-27T06:59:02.226Z,101647.25
2022-07-27T07:01:29.337Z,101651.56
2022-07-27T07:04:07.201Z,101652.97
2022-07-27T07:06:33.995Z,101660.97
2022-07-27T07:09:40.793Z,101649.03
2022-07-27T07:12:27.933Z,101652.97
2022-07-27T07:18:51.801Z,101655.94
2022-07-27T07:21:26.558Z,101657.91
2022-07-27T07:23:53.124Z,101666.00
2022-07-27T07:26:19.677Z,101662.47
2022-07-27T07:28:46.208Z,101658.91
2022-07-27T07:31:12.799Z,101665.75
2022-07-27T07:33:42.776Z,101660.81
2022-07-27T07:36:13.883Z,101664.09
2022-07-27T07:39:31.476Z,101675.47
2022-07-27T07:45:25.951Z,101671.19
2022-07-27T07:47:53.127Z,101678.78
2022-07-27T07:50:20.548Z,101667.94
2022-07-27T07:52:51.745Z,101683.63
2022-07-27T07:55:26.230Z,101686.94
2022-07-27T07:57:53.333Z,101687.66
2022-07-27T08:00:21.089Z,101689.88
2022-07-27T08:02:51.394Z,101698.78
2022-07-27T08:05:18.933Z,101696.41
2022-07-27T08:07:46.295Z,101711.09
2022-07-27T08:10:15.138Z,101713.78
2022-07-27T08:12:44.877Z,101710.75
2022-07-27T08:15:16.579Z,101707.00
2022-07-27T08:17:45.347Z,101706.78
2022-07-27T08:20:16.469Z,101703.78
2022-07-27T08:22:45.729Z,101721.28
2022-07-27T08:25:12.847Z,101718.75
2022-07-27T08:27:41.015Z,101725.66
2022-07-27T08:30:17.824Z,101724.66
2022-07-27T08:33:00.062Z,101718.69
2022-07-27T08:35:27.862Z,101715.97
2022-07-27T08:37:55.307Z,101731.59
2022-07-27T08:40:40.287Z,101720.28
2022-07-27T08:43:10.062Z,101726.38
2022-07-27T08:45:37.534Z,101720.81
2022-07-27T08:48:04.733Z,101727.66
2022-07-27T08:50:33.767Z,101720.84
2022-07-27T08:53:08.645Z,101720.25
2022-07-27T08:55:43.925Z,101726.56
2022-07-27T08:58:12.356Z,101723.84
2022-07-27T09:00:41.121Z,101717.78
2022-07-27T09:03:07.801Z,101708.22
2022-07-27T09:05:42.417Z,101707.75
2022-07-27T09:08:13.383Z,101718.03
2022-07-27T09:10:40.152Z,101710.97
2022-07-27T09:13:39.048Z,101720.00
2022-07-27T09:16:23.518Z,101719.44
2022-07-27T09:19:01.336Z,101731.03
2022-07-27T09:21:28.546Z,101730.50
2022-07-27T09:24:23.441Z,101728.03
2022-07-27T09:27:31.124Z,101730.81
2022-07-27T09:30:07.229Z,101722.94
2022-07-27T09:32:33.748Z,101729.75
2022-07-27T09:35:15.867Z,101731.63
2022-07-27T09:37:42.375Z,101734.56
2022-07-27T09:40:24.226Z,101729.38
2022-07-27T09:43:52.242Z,101742.59
2022-07-27T09:46:09.898Z,101728.78
2022-07-27T09:48:36.950Z,101737.88
2022-07-27T09:51:55.852Z,101735.34
2022-07-27T09:53:57.725Z,101746.50
2022-07-27T09:56:31.698Z,101742.84
2022-07-27T09:59:00.247Z,101741.66
2022-07-27T10:01:30.972Z,101741.03
2022-07-27T10:04:03.890Z,101735.66
2022-07-27T10:06:38.908Z,101743.00
2022-07-27T10:09:15.524Z,101749.84
2022-07-27T10:11:42.188Z,101744.31
2022-07-27T10:14:08.773Z,101735.63
2022-07-27T10:16:36.961Z,101730.88
2022-07-27T10:19:14.184Z,101740.91
2022-07-27T10:21:46.917Z,101746.44
2022-07-27T10:24:34.836Z,101742.56
2022-07-27T10:27:29.124Z,101746.72
2022-07-27T10:29:57.304Z,101752.34
2022-07-27T10:32:36.354Z,101751.22
2022-07-27T10:35:03.143Z,101753.44
2022-07-27T10:37:36.433Z,101751.22
2022-07-27T10:40:27.804Z,101750.66
2022-07-27T10:43:18.329Z,101760.34
2022-07-27T10:46:00.022Z,101743.72
2022-07-27T10:48:37.603Z,101760.63
2022-07-27T10:51:10.899Z,101753.97
2022-07-27T10:54:09.825Z,101755.94
2022-07-27T11:00:56.734Z,101756.53
2022-07-27T11:10:15.773Z,101769.97
2022-07-27T11:12:04.551Z,101778.28
2022-07-27T11:14:41.661Z,101777.16
2022-07-27T11:17:50.910Z,101775.25
2022-07-27T11:20:01.601Z,101769.91
2022-07-27T11:25:22.369Z,101764.72
2022-07-27T11:28:02.179Z,101766.31
2022-07-27T11:30:33.466Z,101768.25
2022-07-27T11:33:08.539Z,101774.03
2022-07-27T11:35:39.049Z,101772.44
2022-07-27T11:39:04.421Z,101769.53
2022-07-27T11:42:04.702Z,101775.50
2022-07-27T11:44:20.264Z,101776.88
2022-07-27T11:46:48.476Z,101786.22
2022-07-27T11:49:18.180Z,101787.31
2022-07-27T11:51:47.222Z,101785.09
2022-07-27T11:54:25.788Z,101794.78
2022-07-27T11:56:55.569Z,101798.25
2022-07-27T11:59:27.208Z,101789.78
2022-07-27T12:01:54.526Z,101792.88
2022-07-27T12:04:41.693Z,101806.50
2022-07-27T12:09:46.749Z,101799.78
2022-07-27T12:12:24.189Z,101799.91
2022-07-27T12:15:00.353Z,101803.91
2022-07-27T12:21:53.593Z,101808.69
2022-07-27T12:24:20.569Z,101799.00
2022-07-27T12:27:06.429Z,101787.97
2022-07-27T12:29:33.841Z,101796.34
2022-07-27T12:32:08.211Z,101801.16
2022-07-27T12:34:36.034Z,101790.50
2022-07-27T12:37:13.893Z,101789.41
2022-07-27T12:39:45.349Z,101786.28
2022-07-27T12:42:13.017Z,101786.97
2022-07-27T12:44:44.809Z,101778.72
2022-07-27T12:47:41.761Z,101783.16
2022-07-27T12:50:30.986Z,101787.63
2022-07-27T12:53:00.958Z,101780.44
2022-07-27T12:55:27.771Z,101794.38
2022-07-27T12:57:59.395Z,101784.91
2022-07-27T13:03:15.556Z,101798.13
2022-07-27T13:05:44.230Z,101790.31
2022-07-27T13:08:11.360Z,101788.22
2022-07-27T13:10:38.361Z,101792.03
2022-07-27T13:13:06.498Z,101788.72
2022-07-27T13:15:33.373Z,101791.72
2022-07-27T13:18:00.216Z,101793.38
2022-07-27T13:20:27.185Z,101786.75
2022-07-27T13:22:54.280Z,101787.63
2022-07-27T13:25:21.417Z,101797.91
2022-07-27T13:27:48.993Z,101791.00
2022-07-27T13:30:17.784Z,101797.91
2022-07-27T13:32:46.826Z,101791.13
2022-07-27T13:35:15.003Z,101792.69
2022-07-27T13:37:42.111Z,101786.66
2022-07-27T13:40:09.980Z,101798.28
2022-07-27T13:42:36.989Z,101792.75
2022-07-27T13:45:09.690Z,101796.38
2022-07-27T13:47:38.797Z,101798.28
2022-07-27T13:50:06.201Z,101788.88
2022-07-27T13:52:32.776Z,101792.47
2022-07-27T13:54:59.244Z,101796.59
2022-07-27T13:57:25.787Z,101799.63
2022-07-27T13:59:52.476Z,101793.25
2022-07-27T14:02:23.168Z,101784.97
2022-07-27T14:04:52.798Z,101807.06
2022-07-27T14:07:23.525Z,101793.63
2022-07-27T14:10:11.550Z,101790.38
2022-07-27T14:12:38.066Z,101785.72
2022-07-27T14:15:06.547Z,101795.06
2022-07-27T14:17:33.085Z,101790.66
2022-07-27T14:19:59.651Z,101784.06
2022-07-27T14:22:26.149Z,101786.31
2022-07-27T14:24:52.662Z,101786.38
2022-07-27T14:27:19.165Z,101774.03
2022-07-27T14:29:45.821Z,101772.94
2022-07-27T14:32:12.819Z,101775.78
2022-07-27T14:34:43.635Z,101776.81
2022-07-27T14:37:10.727Z,101776.09
2022-07-27T14:39:37.427Z,101775.56
2022-07-27T14:42:32.816Z,101783.88
2022-07-27T14:45:13.275Z,101766.16
2022-07-27T14:47:40.299Z,101782.22
2022-07-27T14:50:13.519Z,101770.53
2022-07-27T14:52:41.109Z,101780.69
2022-07-27T14:55:08.153Z,101770.44
2022-07-27T14:57:34.741Z,101767.47
2022-07-27T15:00:01.315Z,101783.22
2022-07-27T15:02:27.877Z,101767.88
2022-07-27T15:04:54.641Z,101769.50
2022-07-27T15:07:21.747Z,101776.94
2022-07-27T15:09:48.276Z,101774.81
2022-07-27T15:12:14.891Z,101783.22
2022-07-27T15:14:42.223Z,101755.09
2022-07-27T15:17:31.191Z,101768.84
2022-07-27T15:23:00.682Z,101772.69
2022-07-27T15:25:30.720Z,101774.25
2022-07-27T15:27:57.477Z,101770.41
2022-07-27T15:30:38.761Z,101771.22
2022-07-27T15:33:06.333Z,101768.94
2022-07-27T15:35:32.952Z,101775.56
2022-07-27T15:38:02.414Z,101767.19
2022-07-27T15:40:37.048Z,101770.53
2022-07-27T15:43:24.326Z,101768.63
2022-07-27T15:45:51.161Z,101778.16
2022-07-27T15:48:19.793Z,101779.28
2022-07-27T15:50:49.322Z,101772.81
2022-07-27T15:53:20.006Z,101767.16
2022-07-27T15:55:48.747Z,101780.00
2022-07-27T15:58:17.951Z,101776.09
2022-07-27T16:00:46.486Z,101777.97
2022-07-27T16:03:16.457Z,101768.22
2022-07-27T16:05:44.753Z,101767.94
2022-07-27T16:08:11.612Z,101780.88
2022-07-27T16:10:41.504Z,101773.84
2022-07-27T16:13:10.069Z,101771.59
2022-07-27T16:15:57.566Z,101769.22
2022-07-27T16:18:24.620Z,101768.09
2022-07-27T16:20:53.792Z,101771.63
2022-07-27T16:23:26.708Z,101778.91
2022-07-27T16:46:37.613Z,101771.66
2022-07-27T16:56:35.410Z,101754.00
2022-07-27T17:09:33.268Z,101773.38
2022-07-27T17:24:13.548Z,101774.63
2022-07-27T17:26:42.947Z,101775.13
2022-07-27T17:29:26.207Z,101782.63
2022-07-27T17:33:37.288Z,101772.91
2022-07-27T17:36:44.201Z,101780.03
2022-07-27T17:43:25.700Z,101789.88
2022-07-27T17:45:54.761Z,101788.88
2022-07-27T17:48:21.280Z,101783.66
2022-07-27T17:50:47.913Z,101787.47
2022-07-27T17:53:18.270Z,101785.41
2022-07-27T17:55:49.825Z,101790.09
2022-07-27T18:06:26.181Z,101793.47
2022-07-27T18:08:52.702Z,101790.22
2022-07-27T18:11:19.354Z,101803.66
2022-07-27T18:13:46.977Z,101805.16
2022-07-27T18:16:13.999Z,101797.38
2022-07-27T18:18:42.075Z,101808.25
2022-07-27T18:21:10.694Z,101807.38
2022-07-27T18:23:37.916Z,101805.81
2022-07-27T18:26:04.475Z,101805.69
2022-07-27T18:28:38.750Z,101808.47
2022-07-27T18:31:06.436Z,101805.50
2022-07-27T18:33:35.029Z,101810.59
2022-07-27T18:36:03.338Z,101811.94
2022-07-27T18:38:29.831Z,101804.44
2022-07-27T18:40:56.372Z,101810.44
2022-07-27T18:43:22.967Z,101810.09
2022-07-27T18:45:51.085Z,101809.09
2022-07-27T18:48:17.601Z,101805.75
2022-07-27T18:50:44.333Z,101807.16
2022-07-27T18:53:10.894Z,101809.69
2022-07-27T18:55:37.559Z,101814.53
2022-07-27T18:58:04.881Z,101816.47
2022-07-27T19:00:31.830Z,101810.94
2022-07-27T19:02:58.686Z,101814.16
2022-07-27T19:05:40.917Z,101822.69
2022-07-27T19:08:11.896Z,101817.88
2022-07-27T19:10:42.145Z,101816.50
2022-07-27T19:13:09.088Z,101817.22
2022-07-27T19:15:35.998Z,101821.06
2022-07-27T19:18:02.978Z,101820.81
2022-07-27T19:20:29.585Z,101817.81
2022-07-27T19:22:57.678Z,101824.69
2022-07-27T19:25:24.505Z,101824.38
2022-07-27T19:27:51.328Z,101830.00
2022-07-27T19:30:18.330Z,101829.06
2022-07-27T19:32:44.884Z,101833.72
2022-07-27T19:35:12.162Z,101829.41
2022-07-27T19:37:39.916Z,101840.88
2022-07-27T19:40:33.378Z,101837.16
2022-07-27T19:42:54.943Z,101835.53
2022-07-27T19:45:21.799Z,101836.97
2022-07-27T19:47:48.341Z,101845.78
2022-07-27T19:50:15.592Z,101838.06
2022-07-27T19:52:42.617Z,101848.81
2022-07-27T19:55:09.669Z,101851.91
2022-07-27T19:57:36.165Z,101857.75
2022-07-27T20:00:05.050Z,101852.19
2022-07-27T20:02:31.966Z,101848.28
2022-07-27T20:04:59.183Z,101857.88
2022-07-27T20:07:25.816Z,101849.09
2022-07-27T20:09:52.398Z,101864.81
2022-07-27T20:12:18.911Z,101862.25
2022-07-27T20:14:45.412Z,101856.22
2022-07-27T20:17:12.309Z,101867.84
2022-07-27T20:19:39.719Z,101857.84
2022-07-27T20:22:07.000Z,101862.06
2022-07-27T20:24:33.758Z,101865.81
2022-07-27T20:27:00.386Z,101862.38
2022-07-27T20:29:31.843Z,101871.53
2022-07-27T20:32:00.281Z,101868.25
2022-07-27T20:34:27.178Z,101868.00
2022-07-27T20:36:55.299Z,101868.91
2022-07-27T20:39:23.510Z,101861.44
2022-07-27T20:41:50.393Z,101868.16
2022-07-27T20:44:17.623Z,101864.47
2022-07-27T20:46:44.319Z,101860.59
2022-07-27T20:49:11.261Z,101861.81
2022-07-27T20:51:39.354Z,101870.41
2022-07-27T20:54:05.867Z,101868.34
2022-07-27T20:56:32.361Z,101865.81
2022-07-27T20:58:59.050Z,101868.50
2022-07-27T21:01:25.685Z,101870.41
2022-07-27T21:03:52.263Z,101871.28
2022-07-27T21:06:18.780Z,101883.91
2022-07-27T21:08:46.835Z,101879.09
2022-07-27T21:11:13.720Z,101876.75
2022-07-27T21:13:40.803Z,101879.09
2022-07-27T21:16:07.885Z,101876.47
2022-07-27T21:18:34.481Z,101877.41
2022-07-27T21:21:01.044Z,101881.22
2022-07-27T21:23:46.014Z,101877.28
2022-07-27T21:26:12.528Z,101874.94
2022-07-27T21:28:42.040Z,101878.97
2022-07-27T21:31:08.858Z,101878.22
2022-07-27T21:33:39.599Z,101879.97
2022-07-27T21:36:07.011Z,101886.28
2022-07-27T21:38:33.515Z,101886.66
2022-07-27T21:41:00.236Z,101880.09
2022-07-27T21:43:26.813Z,101877.28
2022-07-27T21:45:53.389Z,101873.03
2022-07-27T21:48:19.936Z,101875.78
2022-07-27T21:50:46.517Z,101873.03
2022-07-27T21:53:13.089Z,101875.31
2022-07-27T21:55:40.995Z,101876.59
2022-07-27T21:58:08.341Z,101876.84
2022-07-27T22:00:34.883Z,101871.44
2022-07-27T22:03:01.469Z,101880.97
2022-07-27T22:05:28.012Z,101886.13
2022-07-27T22:07:54.591Z,101877.97
2022-07-27T22:10:21.349Z,101874.50
2022-07-27T22:12:47.909Z,101874.56
2022-07-27T22:15:14.456Z,101877.19
2022-07-27T22:17:46.030Z,101872.69
2022-07-27T22:20:17.416Z,101879.91
2022-07-27T22:22:44.057Z,101885.91
2022-07-27T22:25:10.716Z,101882.63
2022-07-27T22:27:37.246Z,101882.47
2022-07-27T22:30:04.227Z,101882.28
2022-07-27T22:32:30.767Z,101881.06
2022-07-27T22:34:57.278Z,101892.53
2022-07-27T22:37:23.780Z,101890.84
2022-07-27T22:39:50.255Z,101888.69
2022-07-27T22:42:17.147Z,101891.41
2022-07-27T22:44:43.812Z,101896.03
2022-07-27T22:47:10.622Z,101894.00
2022-07-27T22:49:37.347Z,101887.59
2022-07-27T22:52:05.061Z,101889.31
2022-07-27T22:54:36.552Z,101892.91
2022-07-27T22:57:04.423Z,101885.34
2022-07-27T22:59:31.088Z,101898.38
2022-07-27T23:01:58.015Z,101897.94
2022-07-27T23:04:24.753Z,101897.28
2022-07-27T23:06:51.627Z,101903.59
2022-07-27T23:09:18.638Z,101897.28
2022-07-27T23:11:45.456Z,101894.94
2022-07-27T23:14:13.081Z,101902.16
2022-07-27T23:16:40.460Z,101901.72
2022-07-27T23:19:07.204Z,101906.56
2022-07-27T23:21:33.790Z,101904.94
2022-07-27T23:24:00.805Z,101899.50
2022-07-27T23:26:27.479Z,101898.56
2022-07-27T23:28:54.186Z,101897.41
2022-07-27T23:31:21.536Z,101898.50
2022-07-27T23:33:48.406Z,101889.66
2022-07-27T23:36:15.122Z,101887.56
2022-07-27T23:38:41.887Z,101891.09
2022-07-27T23:41:08.639Z,101888.88
2022-07-27T23:43:35.258Z,101886.78
2022-07-27T23:46:02.821Z,101888.91
2022-07-27T23:48:29.443Z,101882.19
2022-07-27T23:50:56.029Z,101877.16
2022-07-27T23:53:23.902Z,101876.06
2022-07-27T23:55:50.471Z,101877.13
2022-07-27T23:58:16.977Z,101881.53
